Time,TemperatureF,DewpointF,PressureIn,WindDirection,WindDirectionDegrees,WindSpeedMPH,WindSpeedGustMPH,Humidity,HourlyPrecipIn,Conditions,Clouds,dailyrainin,SolarRadiationWatts/m^2,SoftwareType,DateUTC
2013-09-26 00:02:00,56.3,51.3,29.31,SSE,159,6.0,-999.0,83,-99.99,,,2.32,0.0,meteohub,2013-09-26 05:02:00,
2013-09-26 00:07:00,56.1,51.4,29.31,SSE,148,4.0,-999.0,84,-99.99,,,2.32,0.0,meteohub,2013-09-26 05:07:00,
2013-09-26 00:12:00,56.1,51.4,29.31,SSE,163,5.0,-999.0,84,-99.99,,,2.32,0.0,meteohub,2013-09-26 05:12:00,
2013-09-26 00:17:00,55.9,51.3,29.31,SSE,147,6.0,-999.0,84,-99.99,,,2.32,0.0,meteohub,2013-09-26 05:17:00,
2013-09-26 00:22:00,55.8,51.1,29.31,SSE,148,6.0,-999.0,84,-99.99,,,2.32,0.0,meteohub,2013-09-26 05:22:00,
2013-09-26 00:27:00,55.6,51.1,29.31,SSE,150,3.0,-999.0,85,-99.99,,,2.32,0.0,meteohub,2013-09-26 05:27:00,
2013-09-26 00:32:00,55.4,50.9,29.31,SSE,154,8.0,-999.0,85,-99.99,,,2.32,0.0,meteohub,2013-09-26 05:32:00,
2013-09-26 00:37:00,55.4,51.3,29.31,SE,146,6.0,-999.0,86,-99.99,,,2.32,0.0,meteohub,2013-09-26 05:37:00,
2013-09-26 00:42:00,55.2,51.1,29.31,SSE,152,5.0,-999.0,86,-99.99,,,2.32,0.0,meteohub,2013-09-26 05:42:00,
2013-09-26 00:47:00,55.2,51.1,29.31,SSE,159,4.0,-999.0,86,-99.99,,,2.32,0.0,meteohub,2013-09-26 05:47:00,
2013-09-26 00:52:00,55.0,50.9,29.31,South,172,2.0,-999.0,86,-99.99,,,2.32,0.0,meteohub,2013-09-26 05:52:00,
2013-09-26 00:57:00,55.0,50.9,29.31,SSE,163,4.0,-999.0,86,-99.99,,,2.32,0.0,meteohub,2013-09-26 05:57:00,
2013-09-26 01:02:00,55.0,50.9,29.31,SSE,162,4.0,-999.0,86,-99.99,,,2.32,0.0,meteohub,2013-09-26 06:02:00,
2013-09-26 01:07:00,55.0,50.9,29.31,South,173,5.0,-999.0,86,-99.99,,,2.32,0.0,meteohub,2013-09-26 06:07:00,
2013-09-26 01:12:00,55.0,50.9,29.31,South,169,1.0,-999.0,86,-99.99,,,2.32,0.0,meteohub,2013-09-26 06:12:00,
2013-09-26 01:17:00,54.9,50.7,29.32,SSE,162,4.0,-999.0,86,-99.99,,,2.32,0.0,meteohub,2013-09-26 06:17:00,
2013-09-26 01:22:00,54.5,50.7,29.32,South,177,4.0,-999.0,87,-99.99,,,2.32,0.0,meteohub,2013-09-26 06:22:00,
2013-09-26 01:27:00,54.5,50.7,29.32,South,175,5.0,-999.0,87,-99.99,,,2.32,0.0,meteohub,2013-09-26 06:27:00,
2013-09-26 01:32:00,54.3,50.5,29.32,SSE,163,5.0,-999.0,87,-99.99,,,2.32,0.0,meteohub,2013-09-26 06:32:00,
2013-09-26 01:37:00,54.3,50.9,29.32,SSE,156,5.0,-999.0,88,-99.99,,,2.32,0.0,meteohub,2013-09-26 06:37:00,
2013-09-26 01:42:00,54.1,50.7,29.32,South,171,4.0,-999.0,88,-99.99,,,2.32,0.0,meteohub,2013-09-26 06:42:00,
2013-09-26 01:47:00,54.1,50.7,29.32,South,178,5.0,-999.0,88,-99.99,,,2.32,0.0,meteohub,2013-09-26 06:47:00,
2013-09-26 01:52:00,54.0,50.5,29.32,SSE,151,3.0,-999.0,88,-99.99,,,2.32,0.0,meteohub,2013-09-26 06:52:00,
2013-09-26 01:57:00,53.8,50.4,29.32,SSE,168,1.0,-999.0,88,-99.99,,,2.32,0.0,meteohub,2013-09-26 06:57:00,
2013-09-26 02:02:00,53.6,50.4,29.32,SSE,168,4.0,-999.0,89,-99.99,,,2.32,0.0,meteohub,2013-09-26 07:02:00,
2013-09-26 02:07:00,53.4,50.2,29.33,SSE,167,5.0,-999.0,89,-99.99,,,2.32,0.0,meteohub,2013-09-26 07:07:00,
2013-09-26 02:12:00,53.2,50.0,29.32,SSE,163,3.0,-999.0,89,-99.99,,,2.32,0.0,meteohub,2013-09-26 07:12:00,
2013-09-26 02:17:00,53.2,50.4,29.32,South,172,6.0,-999.0,90,-99.99,,,2.32,0.0,meteohub,2013-09-26 07:17:00,
2013-09-26 02:22:00,53.2,50.4,29.32,SSE,165,5.0,-999.0,90,-99.99,,,2.32,0.0,meteohub,2013-09-26 07:22:00,
2013-09-26 02:27:00,53.2,50.4,29.33,South,169,4.0,-999.0,90,-99.99,,,2.32,0.0,meteohub,2013-09-26 07:27:00,
2013-09-26 02:32:00,53.1,50.2,29.33,SSE,166,4.0,-999.0,90,-99.99,,,2.32,0.0,meteohub,2013-09-26 07:32:00,
2013-09-26 02:37:00,52.9,50.0,29.33,SSE,167,5.0,-999.0,90,-99.99,,,2.32,0.0,meteohub,2013-09-26 07:37:00,
2013-09-26 02:42:00,52.9,50.0,29.32,SSE,161,7.0,-999.0,90,-99.99,,,2.32,0.0,meteohub,2013-09-26 07:42:00,
2013-09-26 02:47:00,52.9,50.4,29.32,SE,143,6.0,-999.0,91,-99.99,,,2.32,0.0,meteohub,2013-09-26 07:47:00,
2013-09-26 02:52:00,52.7,50.2,29.32,SE,146,7.0,-999.0,91,-99.99,,,2.32,0.0,meteohub,2013-09-26 07:52:00,
2013-09-26 02:57:00,52.7,50.2,29.32,SE,144,8.0,-999.0,91,-99.99,,,2.32,0.0,meteohub,2013-09-26 07:57:00,
2013-09-26 03:02:00,52.5,50.0,29.32,SSE,148,3.0,-999.0,91,-99.99,,,2.32,0.0,meteohub,2013-09-26 08:02:00,
2013-09-26 03:07:00,52.5,50.0,29.32,SSE,161,2.0,-999.0,91,-99.99,,,2.32,0.0,meteohub,2013-09-26 08:07:00,
2013-09-26 03:12:00,52.3,49.8,29.31,SSE,163,2.0,-999.0,91,-99.99,,,2.32,0.0,meteohub,2013-09-26 08:12:00,
2013-09-26 03:17:00,52.2,49.6,29.32,SSE,160,1.0,-999.0,91,-99.99,,,2.32,0.0,meteohub,2013-09-26 08:17:00,
2013-09-26 03:22:00,52.0,49.6,29.32,SSE,148,4.0,-999.0,92,-99.99,,,2.32,0.0,meteohub,2013-09-26 08:22:00,
2013-09-26 03:27:00,52.0,49.6,29.32,SSE,155,2.0,-999.0,92,-99.99,,,2.32,0.0,meteohub,2013-09-26 08:27:00,
2013-09-26 03:32:00,51.6,49.5,29.32,SSE,147,4.0,-999.0,92,-99.99,,,2.32,0.0,meteohub,2013-09-26 08:32:00,
2013-09-26 03:37:00,51.6,49.5,29.32,SE,138,4.0,-999.0,92,-99.99,,,2.32,0.0,meteohub,2013-09-26 08:37:00,
2013-09-26 03:42:00,51.4,49.3,29.32,SSE,157,6.0,-999.0,92,-99.99,,,2.32,0.0,meteohub,2013-09-26 08:42:00,
2013-09-26 03:47:00,51.4,49.3,29.32,SE,146,3.0,-999.0,92,-99.99,,,2.32,0.0,meteohub,2013-09-26 08:47:00,
2013-09-26 03:52:00,51.3,49.1,29.32,SSE,154,1.0,-999.0,92,-99.99,,,2.32,0.0,meteohub,2013-09-26 08:52:00,
2013-09-26 03:57:00,51.1,49.1,29.32,SE,145,5.0,-999.0,93,-99.99,,,2.32,0.0,meteohub,2013-09-26 08:57:00,
2013-09-26 04:02:00,51.1,49.1,29.32,SSE,150,5.0,-999.0,93,-99.99,,,2.32,0.0,meteohub,2013-09-26 09:02:00,
2013-09-26 04:07:00,51.1,49.1,29.32,SSE,150,5.0,-999.0,93,-99.99,,,2.32,0.0,meteohub,2013-09-26 09:07:00,
2013-09-26 04:12:00,51.1,49.1,29.32,SSE,157,6.0,-999.0,93,-99.99,,,2.32,0.0,meteohub,2013-09-26 09:12:00,
2013-09-26 04:17:00,50.9,48.9,29.32,SE,140,4.0,-999.0,93,-99.99,,,2.32,0.0,meteohub,2013-09-26 09:17:00,
2013-09-26 04:22:00,50.9,48.9,29.32,SSE,153,4.0,-999.0,93,-99.99,,,2.32,0.0,meteohub,2013-09-26 09:22:00,
2013-09-26 04:27:00,50.7,48.7,29.32,SSE,151,5.0,-999.0,93,-99.99,,,2.32,0.0,meteohub,2013-09-26 09:27:00,
2013-09-26 04:32:00,50.7,48.7,29.32,SSE,155,6.0,-999.0,93,-99.99,,,2.32,0.0,meteohub,2013-09-26 09:32:00,
2013-09-26 04:37:00,50.7,48.7,29.32,SSE,160,5.0,-999.0,93,-99.99,,,2.32,0.0,meteohub,2013-09-26 09:37:00,
2013-09-26 04:42:00,50.5,48.6,29.31,SSW,199,5.0,-999.0,93,-99.99,,,2.32,0.0,meteohub,2013-09-26 09:42:00,
2013-09-26 04:47:00,50.5,48.9,29.32,SSE,147,8.0,-999.0,94,-99.99,,,2.32,0.0,meteohub,2013-09-26 09:47:00,
2013-09-26 04:52:00,50.5,48.9,29.32,SSE,159,5.0,-999.0,94,-99.99,,,2.32,0.0,meteohub,2013-09-26 09:52:00,
2013-09-26 04:57:00,50.5,48.9,29.32,SSE,152,8.0,-999.0,94,-99.99,,,2.32,0.0,meteohub,2013-09-26 09:57:00,
2013-09-26 05:02:00,50.5,48.9,29.31,SSE,160,6.0,-999.0,94,-99.99,,,2.32,0.0,meteohub,2013-09-26 10:02:00,
2013-09-26 05:07:00,50.5,48.9,29.32,South,191,4.0,-999.0,94,-99.99,,,2.32,0.0,meteohub,2013-09-26 10:07:00,
2013-09-26 05:12:00,50.5,48.9,29.32,South,170,4.0,-999.0,94,-99.99,,,2.32,0.0,meteohub,2013-09-26 10:12:00,
2013-09-26 05:17:00,50.7,49.1,29.32,SSE,160,6.0,-999.0,94,-99.99,,,2.32,0.0,meteohub,2013-09-26 10:17:00,
2013-09-26 05:22:00,50.7,49.1,29.32,SSE,165,8.0,-999.0,94,-99.99,,,2.32,0.0,meteohub,2013-09-26 10:22:00,
2013-09-26 05:27:00,50.7,49.1,29.32,South,178,6.0,-999.0,94,-99.99,,,2.32,0.0,meteohub,2013-09-26 10:27:00,
2013-09-26 05:32:00,50.7,49.1,29.32,SSE,157,5.0,-999.0,94,-99.99,,,2.32,0.0,meteohub,2013-09-26 10:32:00,
2013-09-26 05:37:00,50.7,49.1,29.32,South,185,7.0,-999.0,94,-99.99,,,2.32,0.0,meteohub,2013-09-26 10:37:00,
2013-09-26 05:42:00,50.7,49.3,29.32,SE,140,4.0,-999.0,95,-99.99,,,2.32,0.0,meteohub,2013-09-26 10:42:00,
2013-09-26 05:47:00,50.7,49.3,29.32,SSE,148,5.0,-999.0,95,-99.99,,,2.32,0.0,meteohub,2013-09-26 10:47:00,
2013-09-26 05:52:00,50.7,49.3,29.33,SSE,151,4.0,-999.0,95,-99.99,,,2.32,0.0,meteohub,2013-09-26 10:52:00,
2013-09-26 05:57:00,50.7,49.3,29.33,South,171,5.0,-999.0,95,-99.99,,,2.32,0.0,meteohub,2013-09-26 10:57:00,
2013-09-26 06:02:00,50.9,49.5,29.33,South,188,3.0,-999.0,95,-99.99,,,2.32,0.0,meteohub,2013-09-26 11:02:00,
2013-09-26 06:07:00,50.9,49.5,29.33,South,172,2.0,-999.0,95,-99.99,,,2.32,0.0,meteohub,2013-09-26 11:07:00,
2013-09-26 06:12:00,50.9,49.5,29.33,South,178,1.0,-999.0,95,-99.99,,,2.32,0.0,meteohub,2013-09-26 11:12:00,
2013-09-26 06:17:00,50.7,49.3,29.33,SSE,161,5.0,-999.0,95,-99.99,,,2.32,0.0,meteohub,2013-09-26 11:17:00,
2013-09-26 06:22:00,50.7,49.3,29.33,South,169,4.0,-999.0,95,-99.99,,,2.32,0.0,meteohub,2013-09-26 11:22:00,
2013-09-26 06:27:00,50.7,49.3,29.33,SSE,157,2.0,-999.0,95,-99.99,,,2.32,0.0,meteohub,2013-09-26 11:27:00,
2013-09-26 06:32:00,50.7,49.3,29.33,SSE,157,5.0,-999.0,95,-99.99,,,2.32,0.0,meteohub,2013-09-26 11:32:00,
2013-09-26 06:37:00,50.9,49.5,29.32,SE,132,6.0,-999.0,95,-99.99,,,2.32,0.0,meteohub,2013-09-26 11:37:00,
2013-09-26 06:42:00,50.9,49.5,29.32,SSE,165,4.0,-999.0,95,-99.99,,,2.32,0.0,meteohub,2013-09-26 11:42:00,
2013-09-26 06:47:00,50.9,49.5,29.32,SSE,148,5.0,-999.0,95,-99.99,,,2.32,0.0,meteohub,2013-09-26 11:47:00,
2013-09-26 06:52:00,51.1,49.6,29.32,SSE,149,5.0,-999.0,95,-99.99,,,2.32,0.0,meteohub,2013-09-26 11:52:00,
2013-09-26 06:57:00,51.1,49.6,29.32,SE,138,5.0,-999.0,95,-99.99,,,2.32,5.0,meteohub,2013-09-26 11:57:00,
2013-09-26 07:02:00,50.9,49.5,29.32,SE,146,5.0,-999.0,95,-99.99,,,2.32,0.0,meteohub,2013-09-26 12:02:00,
2013-09-26 07:07:00,50.9,49.5,29.31,South,180,10.0,-999.0,95,-99.99,,,2.32,0.0,meteohub,2013-09-26 12:07:00,
2013-09-26 07:12:00,51.1,49.6,29.31,SSE,163,5.0,-999.0,95,-99.99,,,2.32,5.0,meteohub,2013-09-26 12:12:00,
2013-09-26 07:17:00,51.1,49.6,29.32,SE,146,5.0,-999.0,95,-99.99,,,2.32,9.0,meteohub,2013-09-26 12:17:00,
2013-09-26 07:22:00,51.1,49.6,29.31,SSE,153,4.0,-999.0,95,-99.99,,,2.32,12.0,meteohub,2013-09-26 12:22:00,
2013-09-26 07:27:00,51.1,49.6,29.31,SSE,161,6.0,-999.0,95,-99.99,,,2.32,19.0,meteohub,2013-09-26 12:27:00,
2013-09-26 07:32:00,51.1,49.6,29.31,SSE,164,7.0,-999.0,95,-99.99,,,2.32,25.0,meteohub,2013-09-26 12:32:00,
2013-09-26 07:37:00,51.3,49.8,29.31,SE,135,7.0,-999.0,95,-99.99,,,2.32,28.0,meteohub,2013-09-26 12:37:00,
2013-09-26 07:42:00,51.3,49.8,29.31,SE,140,5.0,-999.0,95,-99.99,,,2.32,32.0,meteohub,2013-09-26 12:42:00,
2013-09-26 07:47:00,51.3,49.8,29.31,SSE,147,9.0,-999.0,95,-99.99,,,2.32,37.0,meteohub,2013-09-26 12:47:00,
2013-09-26 07:52:00,51.4,50.0,29.31,SSE,167,6.0,-999.0,95,-99.99,,,2.32,44.0,meteohub,2013-09-26 12:52:00,
2013-09-26 07:57:00,51.4,50.0,29.31,SSE,153,10.0,-999.0,95,-99.99,,,2.32,53.0,meteohub,2013-09-26 12:57:00,
2013-09-26 08:02:00,51.4,49.8,29.31,SSE,162,7.0,-999.0,94,-99.99,,,2.32,67.0,meteohub,2013-09-26 13:02:00,
2013-09-26 08:07:00,51.6,50.0,29.31,SSE,150,7.0,-999.0,94,-99.99,,,2.32,79.0,meteohub,2013-09-26 13:07:00,
2013-09-26 08:12:00,51.8,50.4,29.31,SSE,161,7.0,-999.0,95,-99.99,,,2.32,79.0,meteohub,2013-09-26 13:12:00,
2013-09-26 08:17:00,52.0,50.5,29.31,South,171,7.0,-999.0,95,-99.99,,,2.32,137.0,meteohub,2013-09-26 13:17:00,
2013-09-26 08:22:00,52.3,50.7,29.32,South,187,5.0,-999.0,94,-99.99,,,2.32,174.0,meteohub,2013-09-26 13:22:00,
2013-09-26 08:27:00,52.7,51.1,29.32,SSE,168,8.0,-999.0,94,-99.99,,,2.32,114.0,meteohub,2013-09-26 13:27:00,
2013-09-26 08:32:00,52.9,51.3,29.32,South,170,11.0,-999.0,94,-99.99,,,2.32,102.0,meteohub,2013-09-26 13:32:00,
2013-09-26 08:37:00,52.9,51.3,29.32,South,171,8.0,-999.0,94,-99.99,,,2.32,109.0,meteohub,2013-09-26 13:37:00,
2013-09-26 08:42:00,53.1,51.4,29.31,SSE,151,6.0,-999.0,94,-99.99,,,2.32,167.0,meteohub,2013-09-26 13:42:00,
2013-09-26 08:47:00,53.2,51.3,29.32,South,173,7.0,-999.0,93,-99.99,,,2.32,188.0,meteohub,2013-09-26 13:47:00,
2013-09-26 08:52:00,53.6,51.6,29.32,South,178,7.0,-999.0,93,-99.99,,,2.32,204.0,meteohub,2013-09-26 13:52:00,
2013-09-26 08:57:00,54.1,52.2,29.31,SE,138,7.0,-999.0,93,-99.99,,,2.32,220.0,meteohub,2013-09-26 13:57:00,
2013-09-26 09:02:00,54.3,52.0,29.32,SSE,167,5.0,-999.0,92,-99.99,,,2.32,234.0,meteohub,2013-09-26 14:02:00,
2013-09-26 09:07:00,54.7,52.3,29.31,South,190,8.0,-999.0,92,-99.99,,,2.32,243.0,meteohub,2013-09-26 14:07:00,
2013-09-26 09:12:00,54.9,52.3,29.31,SSE,157,5.0,-999.0,91,-99.99,,,2.32,253.0,meteohub,2013-09-26 14:12:00,
2013-09-26 09:17:00,55.4,52.9,29.31,South,173,9.0,-999.0,91,-99.99,,,2.32,260.0,meteohub,2013-09-26 14:17:00,
2013-09-26 09:22:00,55.6,52.7,29.31,South,175,10.0,-999.0,90,-99.99,,,2.32,274.0,meteohub,2013-09-26 14:22:00,
2013-09-26 09:27:00,55.8,52.9,29.31,SSE,166,10.0,-999.0,90,-99.99,,,2.32,272.0,meteohub,2013-09-26 14:27:00,
2013-09-26 09:32:00,56.5,53.6,29.31,SSE,155,5.0,-999.0,90,-99.99,,,2.32,299.0,meteohub,2013-09-26 14:32:00,
2013-09-26 09:37:00,56.8,53.6,29.31,SSE,158,5.0,-999.0,89,-99.99,,,2.32,315.0,meteohub,2013-09-26 14:37:00,
2013-09-26 09:42:00,57.4,53.8,29.31,South,169,6.0,-999.0,88,-99.99,,,2.32,325.0,meteohub,2013-09-26 14:42:00,
2013-09-26 09:47:00,57.6,53.8,29.31,SE,137,9.0,-999.0,87,-99.99,,,2.32,339.0,meteohub,2013-09-26 14:47:00,
2013-09-26 09:52:00,57.9,53.8,29.31,SSE,159,6.0,-999.0,86,-99.99,,,2.32,352.0,meteohub,2013-09-26 14:52:00,
2013-09-26 09:57:00,58.5,53.6,29.31,South,178,6.0,-999.0,84,-99.99,,,2.32,360.0,meteohub,2013-09-26 14:57:00,
2013-09-26 10:02:00,59.0,53.8,29.31,SSE,153,8.0,-999.0,83,-99.99,,,2.32,360.0,meteohub,2013-09-26 15:02:00,
2013-09-26 10:07:00,59.2,53.6,29.31,South,181,8.0,-999.0,82,-99.99,,,2.32,381.0,meteohub,2013-09-26 15:07:00,
2013-09-26 10:12:00,60.1,54.3,29.31,SSW,209,5.0,-999.0,81,-99.99,,,2.32,392.0,meteohub,2013-09-26 15:12:00,
2013-09-26 10:17:00,60.4,54.3,29.30,South,177,9.0,-999.0,80,-99.99,,,2.32,408.0,meteohub,2013-09-26 15:17:00,
2013-09-26 10:22:00,61.2,54.7,29.30,SSE,155,11.0,-999.0,79,-99.99,,,2.32,413.0,meteohub,2013-09-26 15:22:00,
2013-09-26 10:27:00,61.5,54.7,29.30,SSW,199,9.0,-999.0,78,-99.99,,,2.32,425.0,meteohub,2013-09-26 15:27:00,
2013-09-26 10:32:00,61.9,54.7,29.30,South,190,7.0,-999.0,77,-99.99,,,2.32,436.0,meteohub,2013-09-26 15:32:00,
2013-09-26 10:37:00,62.6,54.9,29.30,SSE,167,4.0,-999.0,76,-99.99,,,2.32,443.0,meteohub,2013-09-26 15:37:00,
2013-09-26 10:42:00,63.1,54.3,29.29,South,173,13.0,-999.0,73,-99.99,,,2.32,454.0,meteohub,2013-09-26 15:42:00,
2013-09-26 10:47:00,63.7,55.2,29.29,SSE,163,4.0,-999.0,74,-99.99,,,2.32,461.0,meteohub,2013-09-26 15:47:00,
2013-09-26 10:52:00,64.0,55.2,29.29,SSE,148,9.0,-999.0,73,-99.99,,,2.32,471.0,meteohub,2013-09-26 15:52:00,
2013-09-26 10:57:00,64.8,55.6,29.29,SSE,150,4.0,-999.0,72,-99.99,,,2.32,483.0,meteohub,2013-09-26 15:57:00,
2013-09-26 11:02:00,65.1,55.4,29.29,SE,138,10.0,-999.0,71,-99.99,,,2.32,490.0,meteohub,2013-09-26 16:02:00,
2013-09-26 11:07:00,65.1,55.4,29.29,South,171,8.0,-999.0,71,-99.99,,,2.32,501.0,meteohub,2013-09-26 16:07:00,
2013-09-26 11:12:00,65.7,55.9,29.29,SSE,155,5.0,-999.0,71,-99.99,,,2.32,506.0,meteohub,2013-09-26 16:12:00,
2013-09-26 11:17:00,66.0,55.6,29.29,South,169,7.0,-999.0,69,-99.99,,,2.32,512.0,meteohub,2013-09-26 16:17:00,
2013-09-26 11:22:00,66.0,55.6,29.29,SE,145,13.0,-999.0,69,-99.99,,,2.32,520.0,meteohub,2013-09-26 16:22:00,
2013-09-26 11:27:00,66.6,55.6,29.29,South,178,7.0,-999.0,68,-99.99,,,2.32,527.0,meteohub,2013-09-26 16:27:00,
2013-09-26 11:32:00,67.3,56.3,29.29,South,183,4.0,-999.0,68,-99.99,,,2.32,531.0,meteohub,2013-09-26 16:32:00,
2013-09-26 11:37:00,67.3,55.9,29.29,South,180,5.0,-999.0,67,-99.99,,,2.32,545.0,meteohub,2013-09-26 16:37:00,
2013-09-26 11:42:00,67.6,55.4,29.28,SSW,206,6.0,-999.0,65,-99.99,,,2.32,547.0,meteohub,2013-09-26 16:42:00,
2013-09-26 11:47:00,68.2,55.9,29.28,South,173,13.0,-999.0,65,-99.99,,,2.32,554.0,meteohub,2013-09-26 16:47:00,
2013-09-26 11:52:00,68.0,55.8,29.28,South,188,9.0,-999.0,65,-99.99,,,2.32,559.0,meteohub,2013-09-26 16:52:00,
2013-09-26 11:57:00,68.5,55.9,29.28,South,188,8.0,-999.0,64,-99.99,,,2.32,564.0,meteohub,2013-09-26 16:57:00,
2013-09-26 12:02:00,68.5,55.9,29.28,SSW,205,9.0,-999.0,64,-99.99,,,2.32,570.0,meteohub,2013-09-26 17:02:00,
2013-09-26 12:07:00,69.1,55.9,29.28,SSW,205,6.0,-999.0,63,-99.99,,,2.32,575.0,meteohub,2013-09-26 17:07:00,
2013-09-26 12:12:00,69.3,55.8,29.27,South,175,7.0,-999.0,62,-99.99,,,2.32,575.0,meteohub,2013-09-26 17:12:00,
2013-09-26 12:17:00,69.4,55.9,29.27,ESE,123,12.0,-999.0,62,-99.99,,,2.32,580.0,meteohub,2013-09-26 17:17:00,
2013-09-26 12:22:00,69.3,55.8,29.27,SSE,165,9.0,-999.0,62,-99.99,,,2.32,587.0,meteohub,2013-09-26 17:22:00,
2013-09-26 12:27:00,69.3,56.1,29.27,South,179,6.0,-999.0,63,-99.99,,,2.32,589.0,meteohub,2013-09-26 17:27:00,
2013-09-26 12:32:00,69.6,55.9,29.27,SSE,150,8.0,-999.0,62,-99.99,,,2.32,592.0,meteohub,2013-09-26 17:32:00,
2013-09-26 12:37:00,70.9,57.2,29.27,South,188,5.0,-999.0,62,-99.99,,,2.32,594.0,meteohub,2013-09-26 17:37:00,
2013-09-26 12:42:00,71.1,56.5,29.27,SSE,148,10.0,-999.0,60,-99.99,,,2.32,591.0,meteohub,2013-09-26 17:42:00,
2013-09-26 12:47:00,70.5,56.8,29.26,SSE,157,10.0,-999.0,62,-99.99,,,2.32,591.0,meteohub,2013-09-26 17:47:00,
2013-09-26 12:52:00,71.1,56.5,29.26,SSE,164,10.0,-999.0,60,-99.99,,,2.32,591.0,meteohub,2013-09-26 17:52:00,
2013-09-26 12:57:00,71.4,56.8,29.26,SSE,153,21.0,-999.0,60,-99.99,,,2.32,592.0,meteohub,2013-09-26 17:57:00,
2013-09-26 13:02:00,71.8,57.2,29.26,SE,133,7.0,-999.0,60,-99.99,,,2.32,596.0,meteohub,2013-09-26 18:02:00,
2013-09-26 13:07:00,71.8,56.7,29.26,SSE,166,8.0,-999.0,59,-99.99,,,2.32,587.0,meteohub,2013-09-26 18:07:00,
2013-09-26 13:12:00,72.0,56.8,29.26,SSE,162,11.0,-999.0,59,-99.99,,,2.32,589.0,meteohub,2013-09-26 18:12:00,
2013-09-26 13:17:00,72.9,57.7,29.25,South,187,7.0,-999.0,59,-99.99,,,2.32,578.0,meteohub,2013-09-26 18:17:00,
2013-09-26 13:22:00,72.5,57.4,29.25,South,188,14.0,-999.0,59,-99.99,,,2.32,582.0,meteohub,2013-09-26 18:22:00,
2013-09-26 13:27:00,72.3,56.7,29.25,South,173,5.0,-999.0,58,-99.99,,,2.32,587.0,meteohub,2013-09-26 18:27:00,
2013-09-26 13:32:00,73.2,58.1,29.24,South,179,4.0,-999.0,59,-99.99,,,2.32,594.0,meteohub,2013-09-26 18:32:00,
2013-09-26 13:37:00,73.2,57.0,29.24,SSE,163,11.0,-999.0,57,-99.99,,,2.32,587.0,meteohub,2013-09-26 18:37:00,
2013-09-26 13:42:00,73.6,57.4,29.24,SW,231,11.0,-999.0,57,-99.99,,,2.32,578.0,meteohub,2013-09-26 18:42:00,
2013-09-26 13:47:00,73.9,57.7,29.24,SSE,162,10.0,-999.0,57,-99.99,,,2.32,575.0,meteohub,2013-09-26 18:47:00,
2013-09-26 13:52:00,74.1,57.4,29.24,SSE,155,9.0,-999.0,56,-99.99,,,2.32,566.0,meteohub,2013-09-26 18:52:00,
2013-09-26 13:57:00,73.9,57.7,29.24,SSE,167,8.0,-999.0,57,-99.99,,,2.32,571.0,meteohub,2013-09-26 18:57:00,
2013-09-26 14:02:00,74.1,57.9,29.23,SSE,159,13.0,-999.0,57,-99.99,,,2.32,577.0,meteohub,2013-09-26 19:02:00,
2013-09-26 14:07:00,74.5,58.3,29.23,South,177,6.0,-999.0,57,-99.99,,,2.32,571.0,meteohub,2013-09-26 19:07:00,
2013-09-26 14:12:00,74.7,57.9,29.23,WSW,247,5.0,-999.0,56,-99.99,,,2.32,561.0,meteohub,2013-09-26 19:12:00,
2013-09-26 14:17:00,75.4,58.6,29.23,SSW,209,6.0,-999.0,56,-99.99,,,2.32,552.0,meteohub,2013-09-26 19:17:00,
2013-09-26 14:22:00,75.2,58.5,29.23,ESE,113,6.0,-999.0,56,-99.99,,,2.32,559.0,meteohub,2013-09-26 19:22:00,
2013-09-26 14:27:00,75.6,58.3,29.23,SSE,158,6.0,-999.0,55,-99.99,,,2.32,545.0,meteohub,2013-09-26 19:27:00,
2013-09-26 14:32:00,75.4,58.1,29.23,SSE,166,19.0,-999.0,55,-99.99,,,2.32,548.0,meteohub,2013-09-26 19:32:00,
2013-09-26 14:37:00,75.4,58.1,29.23,SSW,196,6.0,-999.0,55,-99.99,,,2.32,524.0,meteohub,2013-09-26 19:37:00,
2013-09-26 14:42:00,75.7,58.5,29.23,SSW,194,10.0,-999.0,55,-99.99,,,2.32,534.0,meteohub,2013-09-26 19:42:00,
2013-09-26 14:47:00,75.7,59.0,29.23,SSE,161,20.0,-999.0,56,-99.99,,,2.32,515.0,meteohub,2013-09-26 19:47:00,
2013-09-26 14:52:00,75.9,58.6,29.23,SSE,165,9.0,-999.0,55,-99.99,,,2.32,510.0,meteohub,2013-09-26 19:52:00,
2013-09-26 14:57:00,75.7,58.5,29.23,SSE,153,16.0,-999.0,55,-99.99,,,2.32,506.0,meteohub,2013-09-26 19:57:00,
2013-09-26 15:02:00,75.6,58.3,29.23,SSE,158,11.0,-999.0,55,-99.99,,,2.32,494.0,meteohub,2013-09-26 20:02:00,
2013-09-26 15:07:00,75.6,58.3,29.22,South,181,9.0,-999.0,55,-99.99,,,2.32,494.0,meteohub,2013-09-26 20:07:00,
2013-09-26 15:12:00,75.4,58.1,29.22,South,190,13.0,-999.0,55,-99.99,,,2.32,485.0,meteohub,2013-09-26 20:12:00,
2013-09-26 15:17:00,75.4,58.6,29.22,South,170,10.0,-999.0,56,-99.99,,,2.32,475.0,meteohub,2013-09-26 20:17:00,
2013-09-26 15:22:00,75.7,58.5,29.22,SSE,160,10.0,-999.0,55,-99.99,,,2.32,468.0,meteohub,2013-09-26 20:22:00,
2013-09-26 15:27:00,75.6,58.8,29.22,South,181,18.0,-999.0,56,-99.99,,,2.32,469.0,meteohub,2013-09-26 20:27:00,
2013-09-26 15:32:00,75.6,58.3,29.22,SE,144,12.0,-999.0,55,-99.99,,,2.32,464.0,meteohub,2013-09-26 20:32:00,
2013-09-26 15:37:00,75.7,58.5,29.22,South,169,20.0,-999.0,55,-99.99,,,2.32,441.0,meteohub,2013-09-26 20:37:00,
2013-09-26 15:42:00,75.6,58.8,29.21,South,174,9.0,-999.0,56,-99.99,,,2.32,425.0,meteohub,2013-09-26 20:42:00,
2013-09-26 15:47:00,75.9,59.2,29.21,SSW,198,4.0,-999.0,56,-99.99,,,2.32,417.0,meteohub,2013-09-26 20:47:00,
2013-09-26 15:52:00,76.3,59.0,29.21,South,181,10.0,-999.0,55,-99.99,,,2.32,404.0,meteohub,2013-09-26 20:52:00,
2013-09-26 15:57:00,75.9,58.1,29.21,South,169,14.0,-999.0,54,-99.99,,,2.32,401.0,meteohub,2013-09-26 20:57:00,
2013-09-26 16:02:00,75.9,58.6,29.21,South,182,7.0,-999.0,55,-99.99,,,2.32,385.0,meteohub,2013-09-26 21:02:00,
2013-09-26 16:07:00,76.3,59.0,29.21,South,188,18.0,-999.0,55,-99.99,,,2.32,376.0,meteohub,2013-09-26 21:07:00,
2013-09-26 16:12:00,75.7,58.5,29.21,SSE,163,22.0,-999.0,55,-99.99,,,2.32,367.0,meteohub,2013-09-26 21:12:00,
2013-09-26 16:19:00,75.2,58.5,29.21,South,171,15.0,-999.0,56,-99.99,,,2.32,350.0,meteohub,2013-09-26 21:19:00,
2013-09-26 16:24:00,75.6,58.8,29.20,SW,232,7.0,-999.0,56,-99.99,,,2.32,339.0,meteohub,2013-09-26 21:24:00,
2013-09-26 16:29:00,75.7,59.0,29.20,SSW,208,13.0,-999.0,56,-99.99,,,2.32,332.0,meteohub,2013-09-26 21:29:00,
2013-09-26 16:34:00,75.7,58.5,29.20,South,177,12.0,-999.0,55,-99.99,,,2.32,323.0,meteohub,2013-09-26 21:34:00,
2013-09-26 16:39:00,75.4,58.6,29.20,South,172,7.0,-999.0,56,-99.99,,,2.32,309.0,meteohub,2013-09-26 21:39:00,
2013-09-26 16:44:00,74.8,58.1,29.20,SSW,192,11.0,-999.0,56,-99.99,,,2.32,295.0,meteohub,2013-09-26 21:44:00,
2013-09-26 16:49:00,74.5,57.7,29.20,South,173,16.0,-999.0,56,-99.99,,,2.32,283.0,meteohub,2013-09-26 21:49:00,
2013-09-26 16:54:00,74.7,58.5,29.20,South,186,9.0,-999.0,57,-99.99,,,2.32,271.0,meteohub,2013-09-26 21:54:00,
2013-09-26 16:59:00,74.7,58.5,29.20,SW,227,11.0,-999.0,57,-99.99,,,2.32,257.0,meteohub,2013-09-26 21:59:00,
2013-09-26 17:04:00,74.8,58.6,29.20,SSW,210,14.0,-999.0,57,-99.99,,,2.32,246.0,meteohub,2013-09-26 22:04:00,
2013-09-26 17:09:00,74.7,58.5,29.20,South,175,15.0,-999.0,57,-99.99,,,2.32,234.0,meteohub,2013-09-26 22:09:00,
2013-09-26 17:14:00,74.1,58.5,29.20,SSE,159,11.0,-999.0,58,-99.99,,,2.32,218.0,meteohub,2013-09-26 22:14:00,
2013-09-26 17:21:00,73.9,58.3,29.20,SSW,212,8.0,-999.0,58,-99.99,,,2.32,195.0,meteohub,2013-09-26 22:21:00,
2013-09-26 17:27:00,73.8,58.1,29.20,South,169,5.0,-999.0,58,-99.99,,,2.32,181.0,meteohub,2013-09-26 22:27:00,
2013-09-26 17:32:00,73.4,58.3,29.20,SSE,157,10.0,-999.0,59,-99.99,,,2.32,167.0,meteohub,2013-09-26 22:32:00,
2013-09-26 17:37:00,73.0,57.9,29.20,SE,146,7.0,-999.0,59,-99.99,,,2.32,151.0,meteohub,2013-09-26 22:37:00,
2013-09-26 17:42:00,72.9,58.1,29.20,SSE,161,8.0,-999.0,60,-99.99,,,2.32,135.0,meteohub,2013-09-26 22:42:00,
2013-09-26 17:47:00,72.7,58.5,29.21,South,174,10.0,-999.0,61,-99.99,,,2.32,121.0,meteohub,2013-09-26 22:47:00,
2013-09-26 17:52:00,72.1,57.9,29.21,SSE,155,8.0,-999.0,61,-99.99,,,2.32,107.0,meteohub,2013-09-26 22:52:00,
2013-09-26 17:57:00,72.0,57.7,29.21,South,173,13.0,-999.0,61,-99.99,,,2.32,93.0,meteohub,2013-09-26 22:57:00,
2013-09-26 18:02:00,71.8,58.1,29.21,South,181,6.0,-999.0,62,-99.99,,,2.32,83.0,meteohub,2013-09-26 23:02:00,
2013-09-26 18:07:00,71.4,57.7,29.21,SE,143,13.0,-999.0,62,-99.99,,,2.32,72.0,meteohub,2013-09-26 23:07:00,
2013-09-26 18:12:00,71.2,57.6,29.21,SSE,158,11.0,-999.0,62,-99.99,,,2.32,60.0,meteohub,2013-09-26 23:12:00,
2013-09-26 18:17:00,70.9,57.7,29.22,SSE,160,7.0,-999.0,63,-99.99,,,2.32,49.0,meteohub,2013-09-26 23:17:00,
2013-09-26 18:22:00,70.5,57.7,29.22,South,169,5.0,-999.0,64,-99.99,,,2.32,40.0,meteohub,2013-09-26 23:22:00,
2013-09-26 18:27:00,70.3,57.6,29.22,SSE,165,10.0,-999.0,64,-99.99,,,2.32,33.0,meteohub,2013-09-26 23:27:00,
2013-09-26 18:32:00,70.0,57.7,29.22,SSE,159,8.0,-999.0,65,-99.99,,,2.32,26.0,meteohub,2013-09-26 23:32:00,
2013-09-26 18:37:00,69.4,57.6,29.23,SSE,158,5.0,-999.0,66,-99.99,,,2.32,23.0,meteohub,2013-09-26 23:37:00,
2013-09-26 18:42:00,69.3,57.9,29.23,South,189,10.0,-999.0,67,-99.99,,,2.32,19.0,meteohub,2013-09-26 23:42:00,
2013-09-26 18:47:00,68.7,57.4,29.23,South,186,7.0,-999.0,67,-99.99,,,2.32,14.0,meteohub,2013-09-26 23:47:00,
2013-09-26 18:52:00,68.4,57.4,29.23,South,172,5.0,-999.0,68,-99.99,,,2.32,9.0,meteohub,2013-09-26 23:52:00,
2013-09-26 18:57:00,68.2,57.2,29.23,SSW,192,10.0,-999.0,68,-99.99,,,2.32,7.0,meteohub,2013-09-26 23:57:00,
2013-09-26 19:02:00,67.8,56.8,29.24,SSE,163,6.0,-999.0,68,-99.99,,,2.32,0.0,meteohub,2013-09-27 00:02:00,
2013-09-26 19:07:00,67.6,57.0,29.24,SSW,200,8.0,-999.0,69,-99.99,,,2.32,0.0,meteohub,2013-09-27 00:07:00,
2013-09-26 19:14:00,67.1,57.0,29.24,SSE,160,7.0,-999.0,70,-99.99,,,2.32,0.0,meteohub,2013-09-27 00:14:00,
2013-09-26 19:19:00,66.9,56.8,29.25,South,189,4.0,-999.0,70,-99.99,,,2.32,0.0,meteohub,2013-09-27 00:19:00,
2013-09-26 19:24:00,66.6,56.8,29.25,South,188,5.0,-999.0,71,-99.99,,,2.32,0.0,meteohub,2013-09-27 00:24:00,
2013-09-26 19:32:00,66.0,56.7,29.25,SSE,160,5.0,-999.0,72,-99.99,,,2.32,0.0,meteohub,2013-09-27 00:32:00,
2013-09-26 19:37:00,65.7,56.8,29.25,South,175,8.0,-999.0,73,-99.99,,,2.32,0.0,meteohub,2013-09-27 00:37:00,
2013-09-26 19:42:00,65.5,56.7,29.25,South,175,6.0,-999.0,73,-99.99,,,2.32,0.0,meteohub,2013-09-27 00:42:00,
2013-09-26 19:47:00,65.3,56.5,29.25,South,180,6.0,-999.0,73,-99.99,,,2.32,0.0,meteohub,2013-09-27 00:47:00,
2013-09-26 19:52:00,65.1,56.3,29.26,SSE,155,9.0,-999.0,73,-99.99,,,2.32,0.0,meteohub,2013-09-27 00:52:00,
2013-09-26 19:57:00,65.1,56.3,29.26,SSE,159,8.0,-999.0,73,-99.99,,,2.32,0.0,meteohub,2013-09-27 00:57:00,
2013-09-26 20:02:00,64.9,56.1,29.26,South,173,9.0,-999.0,73,-99.99,,,2.32,0.0,meteohub,2013-09-27 01:02:00,
2013-09-26 20:07:00,64.8,56.3,29.26,South,186,9.0,-999.0,74,-99.99,,,2.32,0.0,meteohub,2013-09-27 01:07:00,
2013-09-26 20:12:00,64.8,56.3,29.26,SSE,161,7.0,-999.0,74,-99.99,,,2.32,0.0,meteohub,2013-09-27 01:12:00,
2013-09-26 20:17:00,64.6,56.1,29.26,SSE,163,5.0,-999.0,74,-99.99,,,2.32,0.0,meteohub,2013-09-27 01:17:00,
2013-09-26 20:22:00,64.0,55.9,29.26,SSE,165,5.0,-999.0,75,-99.99,,,2.32,0.0,meteohub,2013-09-27 01:22:00,
2013-09-26 20:27:00,63.9,56.1,29.26,SSE,161,7.0,-999.0,76,-99.99,,,2.32,0.0,meteohub,2013-09-27 01:27:00,
2013-09-26 20:32:00,63.7,55.9,29.26,South,173,4.0,-999.0,76,-99.99,,,2.32,0.0,meteohub,2013-09-27 01:32:00,
2013-09-26 20:37:00,63.3,55.9,29.26,SSE,153,11.0,-999.0,77,-99.99,,,2.32,0.0,meteohub,2013-09-27 01:37:00,
2013-09-26 20:42:00,63.1,55.8,29.26,SE,136,9.0,-999.0,77,-99.99,,,2.32,0.0,meteohub,2013-09-27 01:42:00,
2013-09-26 20:47:00,63.0,55.6,29.26,SSW,199,8.0,-999.0,77,-99.99,,,2.32,0.0,meteohub,2013-09-27 01:47:00,
2013-09-26 20:52:00,63.0,55.6,29.26,SSE,165,4.0,-999.0,77,-99.99,,,2.32,0.0,meteohub,2013-09-27 01:52:00,
2013-09-26 20:57:00,62.8,55.8,29.26,SSW,207,8.0,-999.0,78,-99.99,,,2.32,0.0,meteohub,2013-09-27 01:57:00,
2013-09-26 21:02:00,62.8,55.8,29.26,SSE,150,8.0,-999.0,78,-99.99,,,2.32,0.0,meteohub,2013-09-27 02:02:00,
2013-09-26 21:07:00,62.6,55.6,29.26,SSE,150,10.0,-999.0,78,-99.99,,,2.32,0.0,meteohub,2013-09-27 02:07:00,
2013-09-26 21:12:00,62.4,55.4,29.26,South,177,6.0,-999.0,78,-99.99,,,2.32,0.0,meteohub,2013-09-27 02:12:00,
2013-09-26 21:17:00,62.4,55.4,29.26,SSE,168,9.0,-999.0,78,-99.99,,,2.32,0.0,meteohub,2013-09-27 02:17:00,
2013-09-26 21:22:00,62.4,55.4,29.26,SSE,152,8.0,-999.0,78,-99.99,,,2.32,0.0,meteohub,2013-09-27 02:22:00,
2013-09-26 21:27:00,62.2,55.2,29.26,South,171,8.0,-999.0,78,-99.99,,,2.32,0.0,meteohub,2013-09-27 02:27:00,
2013-09-26 21:32:00,62.2,55.2,29.27,SSW,195,8.0,-999.0,78,-99.99,,,2.32,0.0,meteohub,2013-09-27 02:32:00,
2013-09-26 21:37:00,62.2,55.2,29.27,SSE,155,7.0,-999.0,78,-99.99,,,2.32,0.0,meteohub,2013-09-27 02:37:00,
2013-09-26 21:42:00,62.1,55.0,29.27,SE,134,6.0,-999.0,78,-99.99,,,2.32,0.0,meteohub,2013-09-27 02:42:00,
2013-09-26 21:47:00,62.1,55.0,29.27,SSE,157,5.0,-999.0,78,-99.99,,,2.32,0.0,meteohub,2013-09-27 02:47:00,
2013-09-26 21:52:00,62.1,55.0,29.27,SSE,152,9.0,-999.0,78,-99.99,,,2.32,0.0,meteohub,2013-09-27 02:52:00,
2013-09-26 21:57:00,62.1,55.0,29.27,SSE,168,9.0,-999.0,78,-99.99,,,2.32,0.0,meteohub,2013-09-27 02:57:00,
2013-09-26 22:02:00,61.9,54.9,29.27,South,189,4.0,-999.0,78,-99.99,,,2.32,0.0,meteohub,2013-09-27 03:02:00,
2013-09-26 22:07:00,61.9,54.9,29.27,South,169,15.0,-999.0,78,-99.99,,,2.32,0.0,meteohub,2013-09-27 03:07:00,
2013-09-26 22:12:00,61.9,54.9,29.27,SSE,167,5.0,-999.0,78,-99.99,,,2.32,0.0,meteohub,2013-09-27 03:12:00,
2013-09-26 22:17:00,61.5,54.7,29.27,SSE,165,8.0,-999.0,78,-99.99,,,2.32,0.0,meteohub,2013-09-27 03:17:00,
2013-09-26 22:22:00,61.3,54.5,29.27,South,175,9.0,-999.0,78,-99.99,,,2.32,0.0,meteohub,2013-09-27 03:22:00,
2013-09-26 22:27:00,61.3,54.5,29.27,South,175,12.0,-999.0,78,-99.99,,,2.32,0.0,meteohub,2013-09-27 03:27:00,
2013-09-26 22:32:00,61.3,54.5,29.27,South,174,9.0,-999.0,78,-99.99,,,2.32,0.0,meteohub,2013-09-27 03:32:00,
2013-09-26 22:37:00,61.3,54.1,29.27,SSW,199,7.0,-999.0,77,-99.99,,,2.32,0.0,meteohub,2013-09-27 03:37:00,
2013-09-26 22:42:00,61.3,54.1,29.27,South,174,9.0,-999.0,77,-99.99,,,2.32,0.0,meteohub,2013-09-27 03:42:00,
2013-09-26 22:47:00,61.2,54.0,29.26,South,175,10.0,-999.0,77,-99.99,,,2.32,0.0,meteohub,2013-09-27 03:47:00,
2013-09-26 22:52:00,61.3,54.1,29.26,SSE,167,12.0,-999.0,77,-99.99,,,2.32,0.0,meteohub,2013-09-27 03:52:00,
2013-09-26 22:57:00,61.3,53.8,29.26,SSE,162,9.0,-999.0,76,-99.99,,,2.32,0.0,meteohub,2013-09-27 03:57:00,
2013-09-26 23:01:00,61.3,53.8,29.26,SSE,151,6.0,-999.0,76,-99.99,,,2.32,0.0,meteohub,2013-09-27 04:01:00,
2013-09-26 23:02:00,61.3,53.8,29.26,South,188,9.0,-999.0,76,-99.99,,,2.32,0.0,meteohub,2013-09-27 04:02:00,
2013-09-26 23:07:00,61.3,53.8,29.26,South,178,5.0,-999.0,76,-99.99,,,2.32,0.0,meteohub,2013-09-27 04:07:00,
2013-09-26 23:12:00,61.3,53.8,29.26,South,178,9.0,-999.0,76,-99.99,,,2.32,0.0,meteohub,2013-09-27 04:12:00,
2013-09-26 23:17:00,61.5,54.0,29.26,South,188,9.0,-999.0,76,-99.99,,,2.32,0.0,meteohub,2013-09-27 04:17:00,
2013-09-26 23:22:00,61.3,53.8,29.26,South,189,10.0,-999.0,76,-99.99,,,2.32,0.0,meteohub,2013-09-27 04:22:00,
2013-09-26 23:27:00,61.3,53.8,29.26,SSW,210,6.0,-999.0,76,-99.99,,,2.32,0.0,meteohub,2013-09-27 04:27:00,
2013-09-26 23:32:00,61.5,54.0,29.26,South,186,9.0,-999.0,76,-99.99,,,2.32,0.0,meteohub,2013-09-27 04:32:00,
2013-09-26 23:37:00,61.5,54.0,29.26,SSW,194,8.0,-999.0,76,-99.99,,,2.32,0.0,meteohub,2013-09-27 04:37:00,
2013-09-26 23:42:00,61.5,54.0,29.26,South,190,8.0,-999.0,76,-99.99,,,2.32,0.0,meteohub,2013-09-27 04:42:00,
2013-09-26 23:47:00,61.7,54.1,29.26,SSW,194,10.0,-999.0,76,-99.99,,,2.32,0.0,meteohub,2013-09-27 04:47:00,
2013-09-26 23:52:00,62.1,54.0,29.26,South,171,9.0,-999.0,75,-99.99,,,2.32,0.0,meteohub,2013-09-27 04:52:00,
2013-09-26 23:57:00,62.2,54.1,29.26,SSW,205,9.0,-999.0,75,-99.99,,,2.32,0.0,meteohub,2013-09-27 04:57:00,